Church Point, Louisiana
Current Conditions -  °F | °C
As of 8:35 AM on Sunday 23 Nov 2014 (Local Time) from KOPL Reporting Station
Scattered Clouds Scattered Clouds  
Wind Chill: 62°   Ceiling: Unl
Heat Index: 62°   Visibility: 10mi
Dew Point: 59°   Wind: 14mph
Humidity: 91%   Direction: 210°SSW
Pressure: 29.64"   Gusts: 24mph
Location:  30.4°N, 92.22°W
Report Text: KOPL 231435Z AUTO 21012G21KT 10SM SCT009 16/15 A2964 RMK AO2 T01640149
Loading
Personal Weather Stations






























Interactive Weather Map New forecast layout! Learn more

10-Day Weather Forecast

Advertisements
Track Severe Weather on mobile